메인 페이지
METAR-TAF:

METAR-TAF

공항 :

루안다, 앙골라

루안다 콰트루 드 페베레이루 공항

위도: 08-51S, 경도: 013-14E, 고도: 74m

현재 날씨관측

예보는 41분 전, 09:00시(UTC)에 발표되었습니다.
여러 방향의 바람 3kt
온도 29°C
습도 70%
기압 1012 hPa
시정 10km 이상
고도 2200ft 상공 구름 많음
고도 8000ft 상공 구름 많음

METAR: FNLU 180900Z VRB03KT 9999 BKN022 BKN080 29/23 Q1012 NOSIG

시각: 10:41 (09:41 UTC)

예보

예보는 4 시간 41분 전, 05:00시(UTC)에 발표되었습니다.
예보 대상 시간: 18일 06시부터 19일 12시까지 (UTC)
여러 방향의 바람 3kt
시정 10km 이상
고도 2000ft 상공 구름 조금
고도 2300ft 상공 구름 많음
전환 중
18일 12시부터 18일 14시까지 (UTC)
10kt
시정 10km 이상
고도 2200ft 상공 구름 보통
고도 5000ft 상공 구름 많음
전환 중
18일 20시부터 18일 22시까지 (UTC)
8kt
일시적
19일 00시부터 19일 06시까지 (UTC)
시정: 7000m
고도 1500ft 상공 구름 보통
고도 2000ft 상공 구름 많음
약한비
전환 중
19일 10시부터 19일 12시까지 (UTC)
여러 방향의 바람 3kt
시정: 9000m
고도 2500ft 상공 흐림

TAF: FNLU 180500Z 1806/1912 VRB03KT 9999 FEW020 BKN023 BECMG 1812/1814 28010KT 9999 SCT022 BKN050 BECMG 1820/1822 19008KT TEMPO 1900/1906 7000 -RA SCT015 BKN020 BECMG 1910/1912 VRB03KT 9000 OVC025

4,000개 이상의 공항 관측 자료 및 예보 (METAR 및 TAF 보고).

지도상에서 검색 가능한 기상관측소가 노란 점과 빨간 점으로 표시되어 있습니다.

기상관측소 명을 보려면 표시 위로 마우스를 이동하세요.

날씨 관측과 예보를 보려면 클릭하세요.

지도 변경 : 확대하려면 엑스 표시가 있는 녹색 버튼, 축소하려면 빼기 표시가 있는 녹색 버튼, 다음 페이지의 지도를 보려면 녹색 화살표를 클릭하세요.


METAR-TAF: